createdAt,value
2018-10-16T00:00:20.044Z,8.43
2018-10-16T00:02:48.728Z,6.27
2018-10-16T00:05:18.237Z,6.73
2018-10-16T00:07:46.590Z,6.20
2018-10-16T00:10:19.183Z,5.63
2018-10-16T00:12:47.833Z,6.57
2018-10-16T00:15:16.229Z,9.33
2018-10-16T00:17:44.542Z,8.93
2018-10-16T00:20:12.896Z,6.70
2018-10-16T00:22:41.321Z,6.43
2018-10-16T00:25:14.567Z,7.07
2018-10-16T00:27:43.979Z,6.63
2018-10-16T00:30:12.312Z,7.27
2018-10-16T00:32:41.398Z,7.23
2018-10-16T00:35:10.234Z,7.70
2018-10-16T00:37:38.820Z,6.43
2018-10-16T00:40:08.036Z,6.70
2018-10-16T00:42:36.352Z,6.73
2018-10-16T00:45:05.804Z,6.07
2018-10-16T00:47:34.166Z,7.20
2018-10-16T00:50:02.488Z,6.50
2018-10-16T00:52:30.814Z,8.00
2018-10-16T00:54:59.266Z,8.93
2018-10-16T00:57:27.516Z,7.43
2018-10-16T00:59:55.879Z,7.13
2018-10-16T01:02:24.230Z,6.20
2018-10-16T01:04:52.557Z,6.17
2018-10-16T01:07:20.893Z,7.83
2018-10-16T01:09:49.222Z,8.23
2018-10-16T01:12:17.525Z,7.20
2018-10-16T01:14:45.860Z,8.83
2018-10-16T01:17:14.208Z,7.83
2018-10-16T01:19:42.558Z,6.30
2018-10-16T01:22:11.009Z,7.70
2018-10-16T01:24:39.367Z,6.13
2018-10-16T01:27:07.687Z,6.40
2018-10-16T01:29:36.020Z,8.07
2018-10-16T01:32:04.402Z,6.60
2018-10-16T01:34:32.741Z,7.00
2018-10-16T01:37:01.045Z,6.77
2018-10-16T01:39:29.380Z,7.53
2018-10-16T01:41:57.703Z,7.27
2018-10-16T01:44:26.077Z,8.83
2018-10-16T01:46:54.393Z,9.47
2018-10-16T01:49:22.717Z,8.20
2018-10-16T01:51:51.313Z,9.23
2018-10-16T01:54:19.625Z,8.00
2018-10-16T01:56:47.991Z,8.97
2018-10-16T01:59:16.297Z,7.80
2018-10-16T02:01:44.651Z,6.70
2018-10-16T02:04:13.136Z,8.40
2018-10-16T02:06:41.491Z,8.63
2018-10-16T02:09:11.417Z,8.53
2018-10-16T02:11:39.833Z,8.57
2018-10-16T02:14:08.219Z,7.57
2018-10-16T02:16:36.684Z,6.57
2018-10-16T02:19:05.127Z,6.47
2018-10-16T02:21:33.461Z,6.17
2018-10-16T02:24:01.787Z,5.93
2018-10-16T02:26:30.140Z,7.30
2018-10-16T02:28:58.494Z,5.93
2018-10-16T02:31:26.909Z,6.20
2018-10-16T02:33:55.269Z,7.20
2018-10-16T02:36:23.588Z,7.13
2018-10-16T02:38:51.903Z,6.90
2018-10-16T02:41:20.245Z,7.90
2018-10-16T02:43:48.587Z,7.60
2018-10-16T02:46:16.933Z,8.97
2018-10-16T02:48:45.250Z,8.27
2018-10-16T02:51:13.571Z,8.30
2018-10-16T02:53:41.940Z,6.90
2018-10-16T02:56:10.256Z,6.00
2018-10-16T02:58:38.723Z,6.93
2018-10-16T03:01:07.783Z,6.20
2018-10-16T03:03:37.781Z,7.47
2018-10-16T03:06:06.626Z,6.73
2018-10-16T03:08:35.145Z,5.00
2018-10-16T03:11:03.754Z,6.03
2018-10-16T03:13:32.095Z,6.37
2018-10-16T03:16:00.468Z,7.50
2018-10-16T03:18:28.831Z,7.00
2018-10-16T03:20:57.135Z,6.40
2018-10-16T03:23:25.447Z,7.07
2018-10-16T03:25:53.788Z,7.33
2018-10-16T03:28:22.135Z,8.53
2018-10-16T03:30:50.461Z,7.80
2018-10-16T03:33:18.795Z,9.57
2018-10-16T03:35:47.135Z,11.77
2018-10-16T03:38:15.450Z,7.87
2018-10-16T03:40:43.791Z,8.90
2018-10-16T03:43:12.118Z,8.73
2018-10-16T03:45:40.467Z,9.50
2018-10-16T03:48:08.796Z,8.50
2018-10-16T03:50:37.120Z,7.87
2018-10-16T03:53:05.835Z,8.43
2018-10-16T03:55:34.183Z,8.47
2018-10-16T03:58:02.516Z,9.60
2018-10-16T04:00:30.858Z,9.60
2018-10-16T04:02:59.181Z,9.80
2018-10-16T04:05:27.732Z,7.50
2018-10-16T04:07:56.108Z,6.83
2018-10-16T04:10:24.450Z,9.37
2018-10-16T04:12:52.799Z,9.20
2018-10-16T04:15:21.121Z,9.73
2018-10-16T04:17:49.478Z,9.57
2018-10-16T04:20:17.871Z,10.37
2018-10-16T04:22:46.259Z,7.70
2018-10-16T04:25:14.553Z,7.37
2018-10-16T04:27:42.903Z,8.23
2018-10-16T04:30:11.319Z,6.20
2018-10-16T04:32:39.690Z,8.27
2018-10-16T04:35:14.517Z,5.40
2018-10-16T04:37:43.228Z,7.00
2018-10-16T04:40:11.706Z,6.37
2018-10-16T04:42:40.417Z,4.63
2018-10-16T04:45:10.022Z,7.27
2018-10-16T04:47:38.953Z,6.90
2018-10-16T04:50:07.580Z,5.53
2018-10-16T04:52:35.914Z,6.57
2018-10-16T04:55:04.659Z,7.20
2018-10-16T04:57:32.996Z,7.47
2018-10-16T05:00:01.316Z,8.30
2018-10-16T05:02:29.712Z,7.77
2018-10-16T05:04:58.106Z,7.00
2018-10-16T05:07:26.407Z,8.37
2018-10-16T05:09:54.772Z,8.23
2018-10-16T05:12:23.118Z,7.30
2018-10-16T05:14:51.485Z,9.70
2018-10-16T05:17:19.892Z,8.00
2018-10-16T05:19:48.214Z,7.10
2018-10-16T05:22:16.577Z,8.33
2018-10-16T05:24:44.922Z,9.87
2018-10-16T05:27:13.287Z,9.43
2018-10-16T05:29:41.631Z,7.23
2018-10-16T05:32:10.021Z,9.47
2018-10-16T05:34:38.348Z,10.77
2018-10-16T05:37:06.733Z,10.37
2018-10-16T05:39:35.062Z,10.47
2018-10-16T05:42:03.426Z,8.57
2018-10-16T05:44:31.782Z,10.93
2018-10-16T05:47:00.134Z,11.37
2018-10-16T05:49:28.472Z,8.60
2018-10-16T05:51:56.803Z,9.57
2018-10-16T05:54:25.257Z,9.83
2018-10-16T05:56:53.482Z,10.07
2018-10-16T05:59:21.814Z,8.00
2018-10-16T06:01:50.143Z,9.23
2018-10-16T06:04:18.493Z,8.20
2018-10-16T06:06:46.872Z,9.03
2018-10-16T06:09:15.247Z,12.10
2018-10-16T06:11:43.603Z,10.03
2018-10-16T06:14:11.919Z,11.17
2018-10-16T06:16:40.245Z,8.23
2018-10-16T06:19:08.602Z,7.13
2018-10-16T06:21:36.935Z,6.27
2018-10-16T06:24:05.341Z,6.33
2018-10-16T06:26:33.773Z,5.70
2018-10-16T06:29:02.065Z,7.57
2018-10-16T06:31:30.413Z,8.27
2018-10-16T06:33:58.779Z,5.87
2018-10-16T06:36:27.123Z,6.23
2018-10-16T06:38:55.462Z,8.40
2018-10-16T06:41:23.940Z,7.83
2018-10-16T06:43:52.213Z,6.30
2018-10-16T06:46:20.516Z,8.80
2018-10-16T06:48:49.311Z,8.70
2018-10-16T06:51:17.506Z,11.47
2018-10-16T06:53:46.361Z,9.37
2018-10-16T06:56:14.716Z,9.73
2018-10-16T06:58:43.046Z,8.07
2018-10-16T07:01:11.414Z,9.50
2018-10-16T07:03:39.764Z,8.43
2018-10-16T07:06:08.118Z,10.23
2018-10-16T07:08:36.499Z,6.83
2018-10-16T07:11:05.150Z,9.27
2018-10-16T07:13:33.529Z,10.27
2018-10-16T07:16:01.917Z,10.77
2018-10-16T07:18:30.287Z,11.37
2018-10-16T07:20:58.604Z,8.63
2018-10-16T07:23:27.055Z,9.77
2018-10-16T07:25:55.331Z,8.97
2018-10-16T07:28:23.949Z,12.67
2018-10-16T07:30:52.345Z,14.50
2018-10-16T07:33:20.710Z,13.57
2018-10-16T07:35:49.100Z,11.20
2018-10-16T07:38:17.533Z,15.27
2018-10-16T07:43:24.749Z,14.20
2018-10-16T07:45:53.062Z,12.10
2018-10-16T07:48:21.454Z,13.83
2018-10-16T07:50:49.814Z,14.07
2018-10-16T07:53:18.246Z,12.90
2018-10-16T07:55:46.585Z,14.77
2018-10-16T07:58:14.983Z,10.93
2018-10-16T08:00:43.359Z,15.67
2018-10-16T08:03:11.697Z,15.03
2018-10-16T08:05:40.064Z,15.20
2018-10-16T08:08:08.451Z,14.07
2018-10-16T08:10:36.795Z,12.93
2018-10-16T08:13:05.249Z,16.20
2018-10-16T08:15:33.599Z,15.70
2018-10-16T08:18:01.983Z,13.47
2018-10-16T08:20:30.347Z,14.00
2018-10-16T08:22:58.705Z,14.57
2018-10-16T08:25:27.065Z,14.67
2018-10-16T08:27:55.417Z,16.83
2018-10-16T08:30:23.810Z,14.93
2018-10-16T08:32:52.180Z,18.73
2018-10-16T08:35:20.567Z,16.50
2018-10-16T08:39:59.759Z,16.20
2018-10-16T08:46:42.879Z,16.00
2018-10-16T08:49:22.326Z,15.80
2018-10-16T08:51:51.974Z,14.93
2018-10-16T08:54:20.479Z,18.17
2018-10-16T08:56:48.858Z,18.67
2018-10-16T08:59:17.192Z,14.50
2018-10-16T09:01:45.535Z,19.07
2018-10-16T09:04:14.160Z,16.90
2018-10-16T09:06:42.550Z,15.30
2018-10-16T09:09:16.155Z,15.07
2018-10-16T09:11:45.741Z,15.07
2018-10-16T09:14:14.895Z,14.57
2018-10-16T09:16:43.367Z,14.40
2018-10-16T09:19:11.804Z,14.17
2018-10-16T09:21:40.218Z,16.10
2018-10-16T09:24:08.754Z,15.60
2018-10-16T09:26:37.169Z,14.27
2018-10-16T09:29:05.781Z,16.30
2018-10-16T09:31:34.331Z,14.93
2018-10-16T09:34:02.953Z,15.67
2018-10-16T09:36:31.641Z,12.87
2018-10-16T09:38:59.971Z,13.17
2018-10-16T09:41:28.447Z,15.03
2018-10-16T09:43:56.833Z,13.50
2018-10-16T09:46:25.174Z,11.33
2018-10-16T09:48:53.504Z,11.60
2018-10-16T09:51:21.843Z,12.73
2018-10-16T09:53:50.212Z,10.20
2018-10-16T09:56:18.617Z,11.60
2018-10-16T09:58:46.981Z,11.43
2018-10-16T10:01:20.732Z,10.37
2018-10-16T10:03:50.327Z,11.70
2018-10-16T10:06:18.800Z,11.97
2018-10-16T10:08:47.196Z,10.60
2018-10-16T10:11:15.613Z,10.30
2018-10-16T10:13:44.038Z,10.77
2018-10-16T10:16:12.464Z,10.27
2018-10-16T10:18:40.967Z,9.23
2018-10-16T10:21:09.411Z,9.50
2018-10-16T10:23:37.868Z,9.87
2018-10-16T10:26:06.259Z,8.57
2018-10-16T10:28:34.643Z,9.27
2018-10-16T10:31:03.019Z,9.07
2018-10-16T10:33:31.387Z,9.00
2018-10-16T10:35:59.945Z,9.20
2018-10-16T10:38:28.426Z,9.27
2018-10-16T10:40:56.962Z,9.03
2018-10-16T10:43:25.318Z,8.60
2018-10-16T10:45:53.755Z,8.27
2018-10-16T10:48:22.065Z,7.47
2018-10-16T10:50:50.506Z,8.23
2018-10-16T10:53:18.726Z,6.47
2018-10-16T10:55:47.068Z,7.63
2018-10-16T10:58:15.399Z,6.53
2018-10-16T11:00:43.757Z,6.73
2018-10-16T11:03:12.138Z,6.93
2018-10-16T11:05:40.488Z,6.33
2018-10-16T11:08:08.820Z,6.70
2018-10-16T11:10:37.205Z,5.33
2018-10-16T11:13:05.571Z,6.23
2018-10-16T11:15:33.937Z,6.47
2018-10-16T11:18:02.291Z,5.80
2018-10-16T11:20:30.616Z,5.77
2018-10-16T11:22:58.967Z,5.07
2018-10-16T11:25:27.314Z,4.67
2018-10-16T11:27:55.704Z,6.50
2018-10-16T11:30:24.152Z,6.27
2018-10-16T11:32:52.460Z,5.00
2018-10-16T11:35:20.779Z,5.90
2018-10-16T11:37:49.124Z,5.83
2018-10-16T11:40:17.514Z,5.63
2018-10-16T11:42:45.900Z,5.70
2018-10-16T11:45:14.292Z,5.93
2018-10-16T11:47:42.624Z,5.23
2018-10-16T11:50:11.809Z,6.43
2018-10-16T11:52:40.500Z,6.03
2018-10-16T11:55:09.610Z,5.27
2018-10-16T11:57:37.992Z,6.37
2018-10-16T12:00:10.480Z,6.23
2018-10-16T12:02:38.901Z,6.00
2018-10-16T12:05:07.310Z,5.70
2018-10-16T12:07:35.688Z,4.93
2018-10-16T12:10:04.109Z,4.50
2018-10-16T12:12:32.481Z,5.37
2018-10-16T12:15:00.833Z,5.13
2018-10-16T12:17:36.596Z,6.00
2018-10-16T12:20:09.558Z,5.57
2018-10-16T12:22:37.822Z,5.03
2018-10-16T12:25:06.851Z,5.60
2018-10-16T12:27:35.210Z,5.10
2018-10-16T12:30:03.601Z,4.27
2018-10-16T12:32:31.964Z,4.40
2018-10-16T12:35:00.304Z,4.77
2018-10-16T12:37:28.649Z,4.20
2018-10-16T12:39:57.056Z,3.67
2018-10-16T12:42:25.594Z,4.97
2018-10-16T12:44:53.943Z,3.93
2018-10-16T12:47:22.293Z,4.50
2018-10-16T12:49:50.622Z,5.47
2018-10-16T12:52:18.983Z,4.83
2018-10-16T12:54:47.347Z,4.47
2018-10-16T12:57:15.705Z,4.70
2018-10-16T12:59:44.034Z,4.47
2018-10-16T13:02:12.449Z,3.73
2018-10-16T13:04:40.732Z,4.67
2018-10-16T13:07:14.455Z,4.17
2018-10-16T13:09:42.779Z,3.87
2018-10-16T13:12:11.097Z,4.53
2018-10-16T13:14:39.452Z,5.40
2018-10-16T13:17:07.863Z,4.40
2018-10-16T13:19:36.178Z,4.43
2018-10-16T13:22:04.547Z,4.50
2018-10-16T13:24:32.866Z,4.50
2018-10-16T13:27:01.219Z,4.30
2018-10-16T13:29:29.801Z,4.67
2018-10-16T13:31:57.911Z,4.93
2018-10-16T13:34:26.258Z,5.47
2018-10-16T13:36:54.687Z,5.63
2018-10-16T13:39:22.976Z,5.27
2018-10-16T13:41:51.351Z,5.13
2018-10-16T13:44:19.699Z,4.40
2018-10-16T13:46:48.074Z,3.73
2018-10-16T13:49:16.446Z,5.03
2018-10-16T13:51:44.770Z,3.30
2018-10-16T13:54:13.124Z,3.30
2018-10-16T13:56:41.587Z,3.93
2018-10-16T13:59:09.884Z,3.63
2018-10-16T14:01:38.215Z,3.97
2018-10-16T14:04:06.702Z,4.43
2018-10-16T14:06:35.012Z,5.37
2018-10-16T14:09:04.712Z,5.63
2018-10-16T14:11:33.046Z,4.83
2018-10-16T14:14:01.475Z,5.60
2018-10-16T14:16:29.976Z,3.97
2018-10-16T14:18:58.306Z,4.27
2018-10-16T14:21:26.649Z,5.13
2018-10-16T14:23:54.994Z,4.17
2018-10-16T14:26:23.350Z,4.00
2018-10-16T14:28:51.865Z,5.30
2018-10-16T14:31:20.211Z,5.03
2018-10-16T14:33:48.674Z,4.70
2018-10-16T14:38:51.720Z,4.57
2018-10-16T14:41:20.087Z,5.50
2018-10-16T14:43:48.439Z,4.80
2018-10-16T14:46:16.862Z,4.97
2018-10-16T14:48:45.189Z,5.17
2018-10-16T14:51:13.562Z,4.33
2018-10-16T14:53:41.992Z,5.17
2018-10-16T14:56:10.530Z,5.33
2018-10-16T14:58:38.752Z,5.73
2018-10-16T15:01:07.133Z,4.13
2018-10-16T15:03:35.600Z,5.40
2018-10-16T15:06:04.037Z,4.53
2018-10-16T15:08:32.433Z,4.43
2018-10-16T15:11:00.803Z,4.47
2018-10-16T15:13:29.181Z,4.70
2018-10-16T15:15:57.546Z,4.87
2018-10-16T15:18:25.895Z,5.40
2018-10-16T15:20:54.342Z,5.53
2018-10-16T15:23:22.688Z,4.83
2018-10-16T15:25:51.101Z,6.07
2018-10-16T15:28:19.422Z,4.50
2018-10-16T15:30:47.795Z,4.23
2018-10-16T15:33:16.227Z,4.00
2018-10-16T15:35:44.612Z,4.57
2018-10-16T15:38:12.997Z,5.03
2018-10-16T15:40:41.389Z,4.70
2018-10-16T15:43:09.772Z,4.60
2018-10-16T15:45:38.123Z,4.77
2018-10-16T15:48:06.556Z,4.40
2018-10-16T15:50:34.960Z,4.13
2018-10-16T15:53:03.248Z,3.77
2018-10-16T15:55:31.624Z,3.60
2018-10-16T15:58:00.064Z,3.87
2018-10-16T16:00:28.337Z,3.80
2018-10-16T16:02:56.708Z,4.07
2018-10-16T16:05:25.096Z,4.70
2018-10-16T16:07:53.450Z,4.37
2018-10-16T16:10:21.767Z,5.10
2018-10-16T16:12:50.117Z,4.20
2018-10-16T16:15:19.141Z,4.13
2018-10-16T16:17:47.576Z,4.43
2018-10-16T16:20:16.162Z,3.77
2018-10-16T16:22:44.745Z,4.03
2018-10-16T16:25:14.250Z,4.40
2018-10-16T16:27:42.640Z,4.17
2018-10-16T16:30:12.956Z,3.57
2018-10-16T16:32:41.303Z,3.70
2018-10-16T16:35:09.719Z,3.80
2018-10-16T16:37:37.999Z,4.17
2018-10-16T16:40:08.442Z,4.10
2018-10-16T16:42:36.829Z,4.80
2018-10-16T16:45:05.941Z,3.27
2018-10-16T16:50:10.711Z,4.50
2018-10-16T16:52:39.293Z,4.80
2018-10-16T16:55:09.195Z,5.17
2018-10-16T16:57:37.639Z,5.53
2018-10-16T17:00:06.100Z,3.90
2018-10-16T17:02:34.456Z,4.10
2018-10-16T17:05:02.867Z,4.87
2018-10-16T17:07:31.191Z,3.43
2018-10-16T17:09:59.557Z,4.23
2018-10-16T17:12:27.905Z,3.20
2018-10-16T17:14:56.266Z,3.57
2018-10-16T17:17:24.637Z,3.77
2018-10-16T17:19:53.029Z,3.37
2018-10-16T17:22:21.409Z,4.40
2018-10-16T17:24:49.927Z,4.83
2018-10-16T17:27:18.727Z,4.60
2018-10-16T17:29:47.309Z,11.37
2018-10-16T17:32:15.781Z,7.53
2018-10-16T17:34:44.168Z,7.07
2018-10-16T17:37:12.635Z,6.70
2018-10-16T17:39:41.052Z,6.83
2018-10-16T17:42:09.413Z,5.73
2018-10-16T17:44:37.770Z,5.93
2018-10-16T17:47:06.251Z,5.03
2018-10-16T17:49:41.400Z,5.27
2018-10-16T17:52:09.776Z,5.63
2018-10-16T17:54:38.136Z,4.83
2018-10-16T17:57:06.642Z,5.90
2018-10-16T17:59:34.975Z,5.00
2018-10-16T18:02:03.524Z,4.60
2018-10-16T18:04:31.982Z,4.47
2018-10-16T18:07:00.284Z,5.60
2018-10-16T18:09:28.677Z,5.50
2018-10-16T18:11:57.090Z,5.17
2018-10-16T18:14:25.491Z,4.40
2018-10-16T18:16:53.905Z,4.97
2018-10-16T18:19:22.241Z,5.50
2018-10-16T18:21:50.596Z,5.20
2018-10-16T18:24:19.002Z,5.60
2018-10-16T18:26:47.379Z,4.17
2018-10-16T18:29:15.752Z,4.37
2018-10-16T18:31:44.087Z,3.80
2018-10-16T18:34:12.471Z,4.33
2018-10-16T18:36:40.866Z,3.47
2018-10-16T18:39:09.348Z,5.27
2018-10-16T18:41:38.005Z,30.37
2018-10-16T18:44:06.415Z,21.63
2018-10-16T18:46:34.802Z,16.57
2018-10-16T18:49:03.143Z,9.03
2018-10-16T18:51:31.513Z,5.37
2018-10-16T18:54:00.009Z,5.33
2018-10-16T18:56:28.355Z,6.63
2018-10-16T18:58:56.793Z,6.00
2018-10-16T19:01:25.244Z,4.70
2018-10-16T19:03:53.668Z,5.60
2018-10-16T19:06:22.046Z,5.53
2018-10-16T19:08:50.545Z,4.93
2018-10-16T19:11:18.824Z,4.97
2018-10-16T19:13:47.226Z,5.50
2018-10-16T19:16:15.570Z,6.30
2018-10-16T19:18:43.943Z,5.93
2018-10-16T19:21:12.354Z,8.13
2018-10-16T19:23:40.666Z,6.80
2018-10-16T19:26:09.058Z,7.10
2018-10-16T19:28:37.439Z,7.00
2018-10-16T19:31:05.818Z,6.80
2018-10-16T19:33:34.174Z,7.20
2018-10-16T19:36:02.517Z,6.33
2018-10-16T19:38:30.880Z,5.67
2018-10-16T19:40:59.261Z,6.00
2018-10-16T19:43:27.656Z,6.13
2018-10-16T19:45:56.058Z,7.00
2018-10-16T19:48:24.424Z,6.43
2018-10-16T19:50:52.842Z,6.83
2018-10-16T19:53:21.193Z,7.50
2018-10-16T19:55:49.563Z,7.07
2018-10-16T19:58:17.949Z,7.50
2018-10-16T20:00:46.324Z,7.70
2018-10-16T20:03:14.770Z,7.00
2018-10-16T20:05:43.211Z,6.67
2018-10-16T20:08:11.585Z,7.80
2018-10-16T20:10:39.984Z,6.67
2018-10-16T20:13:08.345Z,7.17
2018-10-16T20:15:36.791Z,7.90
2018-10-16T20:18:05.365Z,6.63
2018-10-16T20:20:33.724Z,7.50
2018-10-16T20:23:02.111Z,9.17
2018-10-16T20:25:30.456Z,7.80
2018-10-16T20:27:58.834Z,9.03
2018-10-16T20:30:27.184Z,7.93
2018-10-16T20:32:55.562Z,9.30
2018-10-16T20:35:23.928Z,9.80
2018-10-16T20:37:52.276Z,8.03
2018-10-16T20:40:20.656Z,8.47
2018-10-16T20:42:49.001Z,8.97
2018-10-16T20:45:17.373Z,9.53
2018-10-16T20:47:45.748Z,9.63
2018-10-16T20:50:14.150Z,8.33
2018-10-16T20:52:42.513Z,9.93
2018-10-16T20:55:10.917Z,7.83
2018-10-16T20:57:39.326Z,8.03
2018-10-16T21:00:08.022Z,6.47
2018-10-16T21:02:36.626Z,6.70
2018-10-16T21:05:06.181Z,7.40
2018-10-16T21:07:34.376Z,8.13
2018-10-16T21:10:02.799Z,8.47
2018-10-16T21:12:31.151Z,7.77
2018-10-16T21:14:59.532Z,8.63
2018-10-16T21:17:27.899Z,7.40
2018-10-16T21:19:56.256Z,6.87
2018-10-16T21:22:24.615Z,6.23
2018-10-16T21:24:53.019Z,6.13
2018-10-16T21:27:21.385Z,6.73
2018-10-16T21:29:49.744Z,6.20
2018-10-16T21:32:18.105Z,7.60
2018-10-16T21:34:46.557Z,8.17
2018-10-16T21:37:14.996Z,8.63
2018-10-16T21:39:43.301Z,8.97
2018-10-16T21:42:11.668Z,7.80
2018-10-16T21:44:40.037Z,8.13
2018-10-16T21:47:08.409Z,7.50
2018-10-16T21:49:36.752Z,7.70
2018-10-16T21:52:05.103Z,7.37
2018-10-16T21:54:34.833Z,8.43
2018-10-16T21:57:03.177Z,7.50
2018-10-16T21:59:31.567Z,7.50
2018-10-16T22:02:05.340Z,7.47
2018-10-16T22:04:33.698Z,8.93
2018-10-16T22:07:02.084Z,9.23
2018-10-16T22:09:30.466Z,8.60
2018-10-16T22:11:58.854Z,7.80
2018-10-16T22:14:27.229Z,8.47
2018-10-16T22:16:55.624Z,8.63
2018-10-16T22:19:23.930Z,8.87
2018-10-16T22:21:52.248Z,8.23
2018-10-16T22:24:20.577Z,8.33
2018-10-16T22:26:48.986Z,8.00
2018-10-16T22:29:17.396Z,6.80
2018-10-16T22:31:45.723Z,8.70
2018-10-16T22:34:14.061Z,9.63
2018-10-16T22:36:42.431Z,9.97
2018-10-16T22:39:11.390Z,8.03
2018-10-16T22:41:39.852Z,7.97
2018-10-16T22:44:08.854Z,8.63
2018-10-16T22:46:37.429Z,7.53
2018-10-16T22:49:06.020Z,8.03
2018-10-16T22:51:34.336Z,8.77
2018-10-16T22:54:02.790Z,7.93
2018-10-16T22:56:31.152Z,7.43
2018-10-16T22:58:59.537Z,8.43
2018-10-16T23:01:27.860Z,7.70
2018-10-16T23:03:57.064Z,7.70
2018-10-16T23:06:25.395Z,6.87
2018-10-16T23:08:53.776Z,7.27
2018-10-16T23:11:22.157Z,7.10
2018-10-16T23:13:50.471Z,8.87
2018-10-16T23:16:18.806Z,7.30
2018-10-16T23:18:47.168Z,7.00
2018-10-16T23:21:15.515Z,7.13
2018-10-16T23:23:44.164Z,8.30
2018-10-16T23:26:12.521Z,8.10
2018-10-16T23:28:40.854Z,7.33
2018-10-16T23:31:09.231Z,8.20
2018-10-16T23:33:37.590Z,8.07
2018-10-16T23:36:05.941Z,9.00
2018-10-16T23:38:34.266Z,8.00
2018-10-16T23:41:02.617Z,7.97
2018-10-16T23:43:30.980Z,8.57
2018-10-16T23:45:59.344Z,8.60
2018-10-16T23:48:27.678Z,8.23
2018-10-16T23:50:56.018Z,9.17
2018-10-16T23:53:24.384Z,8.03
2018-10-16T23:55:52.717Z,7.80
2018-10-16T23:58:21.084Z,7.90
